createdAt,value
2022-08-29T00:00:09.875Z,60.82
2022-08-29T00:04:10.991Z,60.18
2022-08-29T00:07:49.010Z,59.93
2022-08-29T00:11:26.978Z,59.52
2022-08-29T00:15:07.528Z,59.40
2022-08-29T00:18:45.809Z,59.25
2022-08-29T00:22:24.550Z,59.03
2022-08-29T00:26:03.354Z,59.09
2022-08-29T00:29:40.836Z,58.89
2022-08-29T00:33:18.422Z,58.79
2022-08-29T00:36:55.670Z,58.86
2022-08-29T00:40:37.147Z,58.67
2022-08-29T00:44:15.298Z,58.45
2022-08-29T00:48:00.903Z,58.00
2022-08-29T00:51:40.842Z,57.28
2022-08-29T00:55:23.832Z,56.77
2022-08-29T00:59:18.192Z,56.76
2022-08-29T01:02:55.393Z,56.77
2022-08-29T01:06:33.526Z,55.97
2022-08-29T01:10:13.508Z,55.28
2022-08-29T01:13:54.608Z,54.79
2022-08-29T01:17:38.130Z,54.63
2022-08-29T01:21:29.357Z,54.43
2022-08-29T01:25:21.117Z,53.96
2022-08-29T01:28:58.529Z,54.02
2022-08-29T01:32:35.992Z,53.96
2022-08-29T01:36:18.331Z,53.61
2022-08-29T01:39:55.669Z,53.58
2022-08-29T01:43:42.513Z,53.41
2022-08-29T01:47:24.634Z,52.78
2022-08-29T01:51:02.363Z,52.61
2022-08-29T01:54:42.910Z,51.93
2022-08-29T01:58:20.498Z,51.18
2022-08-29T02:02:12.126Z,51.01
2022-08-29T02:05:49.327Z,50.22
2022-08-29T02:09:26.789Z,49.84
2022-08-29T02:13:04.654Z,49.79
2022-08-29T02:16:42.477Z,49.63
2022-08-29T02:20:20.488Z,49.32
2022-08-29T02:24:16.011Z,48.80
2022-08-29T02:27:58.944Z,48.58
2022-08-29T02:31:37.447Z,48.63
2022-08-29T02:35:15.493Z,48.37
2022-08-29T02:38:54.874Z,48.17
2022-08-29T02:42:32.762Z,47.74
2022-08-29T02:46:14.863Z,47.62
2022-08-29T02:49:52.329Z,47.58
2022-08-29T02:53:31.116Z,47.21
2022-08-29T02:57:08.297Z,47.24
2022-08-29T03:00:45.961Z,47.34
2022-08-29T03:04:23.753Z,47.19
2022-08-29T03:08:03.500Z,47.22
2022-08-29T03:11:40.512Z,47.06
2022-08-29T03:15:22.265Z,46.78
2022-08-29T03:19:00.340Z,46.70
2022-08-29T03:22:38.866Z,46.80
2022-08-29T03:26:16.174Z,46.51
2022-08-29T03:29:53.161Z,46.65
2022-08-29T03:33:30.886Z,46.80
2022-08-29T03:37:08.059Z,46.95
2022-08-29T03:40:46.114Z,46.88
2022-08-29T03:44:24.486Z,47.04
2022-08-29T03:48:03.148Z,47.15
2022-08-29T03:51:41.859Z,46.88
2022-08-29T03:55:20.297Z,47.10
2022-08-29T03:58:58.719Z,47.11
2022-08-29T04:02:36.610Z,47.25
2022-08-29T04:06:15.925Z,47.21
2022-08-29T04:09:53.241Z,47.38
2022-08-29T04:13:30.289Z,47.43
2022-08-29T04:17:08.977Z,47.56
2022-08-29T04:20:49.094Z,48.03
2022-08-29T04:24:26.943Z,48.54
2022-08-29T04:28:07.926Z,48.64
2022-08-29T04:31:45.212Z,48.92
2022-08-29T04:35:23.083Z,51.45
2022-08-29T04:39:00.221Z,52.36
2022-08-29T04:42:38.586Z,53.05
2022-08-29T04:46:23.867Z,53.12
2022-08-29T04:50:02.137Z,52.81
2022-08-29T04:53:39.296Z,52.81
2022-08-29T04:57:16.992Z,52.72
2022-08-29T05:00:56.186Z,51.99
2022-08-29T05:04:33.528Z,51.49
2022-08-29T05:08:10.989Z,51.07
2022-08-29T05:11:49.693Z,49.97
2022-08-29T05:15:27.279Z,49.37
2022-08-29T05:19:08.347Z,48.96
2022-08-29T05:22:46.474Z,48.53
2022-08-29T05:26:29.133Z,47.58
2022-08-29T05:30:07.034Z,47.32
2022-08-29T05:33:44.219Z,46.65
2022-08-29T05:37:21.773Z,47.16
2022-08-29T05:41:01.391Z,47.03
2022-08-29T05:44:40.297Z,46.87
2022-08-29T05:48:18.291Z,47.12
2022-08-29T05:51:57.081Z,46.84
2022-08-29T05:55:42.681Z,47.02
2022-08-29T05:59:20.602Z,46.74
2022-08-29T06:02:58.352Z,46.58
2022-08-29T06:06:36.459Z,46.33
2022-08-29T06:10:13.826Z,45.76
2022-08-29T06:13:51.472Z,45.76
2022-08-29T06:17:28.929Z,45.79
2022-08-29T06:21:07.927Z,45.88
2022-08-29T06:24:46.359Z,45.78
2022-08-29T06:28:26.591Z,46.06
2022-08-29T06:32:05.227Z,46.09
2022-08-29T06:35:43.570Z,46.04
2022-08-29T06:39:21.489Z,46.24
2022-08-29T06:42:58.968Z,46.39
2022-08-29T06:46:40.332Z,46.59
2022-08-29T06:50:17.895Z,46.30
2022-08-29T06:53:56.676Z,46.43
2022-08-29T06:57:36.302Z,46.15
2022-08-29T07:01:17.139Z,46.24
2022-08-29T07:04:55.979Z,46.14
2022-08-29T07:08:33.892Z,46.11
2022-08-29T07:12:11.735Z,46.25
2022-08-29T07:15:49.945Z,46.08
2022-08-29T07:19:27.966Z,45.82
2022-08-29T07:23:05.227Z,45.91
2022-08-29T07:26:46.590Z,45.69
2022-08-29T07:30:25.521Z,45.36
2022-08-29T07:34:03.665Z,44.57
2022-08-29T07:37:41.676Z,44.12
2022-08-29T07:41:19.802Z,43.71
2022-08-29T07:44:58.622Z,43.13
2022-08-29T07:48:36.545Z,42.89
2022-08-29T07:52:13.510Z,42.35
2022-08-29T07:55:52.256Z,42.06
2022-08-29T07:59:31.299Z,41.57
2022-08-29T08:03:09.757Z,40.79
2022-08-29T08:06:47.024Z,40.36
2022-08-29T08:10:24.835Z,40.41
2022-08-29T08:14:04.704Z,40.26
2022-08-29T08:17:44.237Z,40.34
2022-08-29T08:21:22.865Z,39.98
2022-08-29T08:25:00.070Z,40.01
2022-08-29T08:28:39.606Z,40.21
2022-08-29T08:32:16.737Z,40.28
2022-08-29T08:35:55.708Z,40.60
2022-08-29T08:39:37.108Z,40.90
2022-08-29T08:43:26.534Z,41.23
2022-08-29T08:47:09.293Z,41.52
2022-08-29T08:50:54.299Z,41.65
2022-08-29T08:54:42.672Z,41.68
2022-08-29T08:58:40.550Z,41.68
2022-08-29T09:02:29.986Z,41.40
2022-08-29T09:06:32.974Z,41.67
2022-08-29T09:10:32.016Z,41.49
2022-08-29T09:14:44.721Z,41.37
2022-08-29T09:18:41.144Z,41.66
2022-08-29T09:22:27.206Z,41.83
2022-08-29T09:26:12.958Z,41.26
2022-08-29T09:30:02.603Z,42.10
2022-08-29T09:33:44.588Z,42.26
2022-08-29T09:37:35.167Z,42.53
2022-08-29T09:41:26.552Z,42.77
2022-08-29T09:45:18.463Z,43.02
2022-08-29T09:49:02.526Z,43.72
2022-08-29T09:52:57.673Z,44.20
2022-08-29T09:56:37.532Z,45.03
2022-08-29T10:00:17.981Z,45.41
2022-08-29T10:04:02.214Z,46.29
2022-08-29T10:07:52.777Z,46.87
2022-08-29T10:11:36.359Z,48.13
2022-08-29T10:15:48.855Z,49.44
2022-08-29T10:19:32.025Z,50.83
2022-08-29T10:23:41.160Z,52.14
2022-08-29T10:27:29.298Z,52.87
2022-08-29T10:31:13.246Z,52.95
2022-08-29T10:35:27.577Z,53.28
2022-08-29T10:39:23.352Z,53.23
2022-08-29T10:43:26.993Z,53.40
2022-08-29T10:47:23.753Z,53.75
2022-08-29T10:51:01.580Z,54.07
2022-08-29T10:54:54.992Z,55.65
2022-08-29T10:59:08.372Z,56.41
2022-08-29T11:03:12.376Z,55.63
2022-08-29T11:07:11.950Z,55.68
2022-08-29T11:10:52.385Z,55.43
2022-08-29T11:14:53.130Z,55.40
2022-08-29T11:18:46.343Z,55.54
2022-08-29T11:22:33.692Z,55.39
2022-08-29T11:26:34.531Z,55.07
2022-08-29T11:30:20.410Z,54.68
2022-08-29T11:34:17.571Z,54.23
2022-08-29T11:38:21.321Z,53.95
2022-08-29T11:42:05.632Z,53.93
2022-08-29T11:45:59.126Z,54.04
2022-08-29T11:49:41.183Z,53.56
2022-08-29T11:53:22.066Z,53.33
2022-08-29T11:57:02.313Z,52.46
2022-08-29T12:00:43.513Z,52.03
2022-08-29T12:04:52.769Z,51.70
2022-08-29T12:08:46.936Z,51.80
2022-08-29T12:12:46.333Z,51.73
2022-08-29T12:16:48.512Z,51.68
2022-08-29T12:20:32.382Z,51.67
2022-08-29T12:24:31.536Z,51.57
2022-08-29T12:28:15.849Z,51.60
2022-08-29T12:32:22.234Z,51.70
2022-08-29T12:36:09.684Z,51.68
2022-08-29T12:40:12.323Z,51.75
2022-08-29T12:43:54.540Z,51.70
2022-08-29T12:47:46.464Z,52.09
2022-08-29T12:51:39.037Z,52.38
2022-08-29T12:55:19.144Z,52.49
2022-08-29T12:59:00.012Z,52.53
2022-08-29T13:02:38.383Z,52.73
2022-08-29T13:06:19.866Z,53.06
2022-08-29T13:10:00.688Z,53.97
2022-08-29T13:13:39.789Z,53.90
2022-08-29T13:17:20.727Z,54.34
2022-08-29T13:21:22.489Z,54.73
2022-08-29T13:25:05.081Z,54.50
2022-08-29T13:28:56.926Z,54.41
2022-08-29T13:32:35.030Z,54.70
2022-08-29T13:36:28.158Z,55.06
2022-08-29T13:40:29.453Z,55.90
2022-08-29T13:44:15.548Z,55.97
2022-08-29T13:47:58.718Z,56.87
2022-08-29T13:51:36.275Z,56.81
2022-08-29T13:55:14.089Z,57.46
2022-08-29T13:58:51.831Z,58.18
2022-08-29T14:02:31.230Z,57.88
2022-08-29T14:06:08.914Z,57.73
2022-08-29T14:09:47.028Z,56.77
2022-08-29T14:13:24.998Z,55.03
2022-08-29T14:17:03.817Z,52.06
2022-08-29T14:20:41.815Z,51.64
2022-08-29T14:24:19.528Z,51.91
2022-08-29T14:27:59.615Z,52.03
2022-08-29T14:31:37.904Z,51.54
2022-08-29T14:35:27.432Z,51.75
2022-08-29T14:39:09.719Z,51.76
2022-08-29T14:42:47.673Z,51.27
2022-08-29T14:46:25.838Z,51.40
2022-08-29T14:50:04.878Z,51.52
2022-08-29T14:53:51.609Z,55.30
2022-08-29T14:57:32.692Z,55.45
2022-08-29T15:01:09.999Z,57.50
2022-08-29T15:04:48.898Z,59.35
2022-08-29T15:08:26.394Z,60.31
2022-08-29T15:12:04.721Z,61.91
2022-08-29T15:15:41.722Z,66.13
2022-08-29T15:23:19.359Z,65.60
2022-08-29T15:26:58.324Z,64.67
2022-08-29T15:30:37.865Z,64.30
2022-08-29T15:34:17.810Z,63.98
2022-08-29T15:37:56.661Z,65.63
2022-08-29T15:41:35.544Z,66.03
2022-08-29T15:45:14.132Z,64.88
2022-08-29T15:48:53.865Z,64.04
2022-08-29T15:52:31.477Z,63.99
2022-08-29T15:56:09.165Z,63.68
2022-08-29T16:00:01.777Z,63.69
2022-08-29T16:03:39.446Z,63.80
2022-08-29T16:07:17.907Z,64.19
2022-08-29T16:10:55.923Z,64.20
2022-08-29T16:18:32.536Z,64.58
2022-08-29T16:22:10.436Z,64.58
2022-08-29T16:25:48.172Z,64.79
2022-08-29T16:29:27.012Z,64.41
2022-08-29T16:33:04.896Z,64.79
2022-08-29T16:36:42.111Z,64.68
2022-08-29T16:40:25.986Z,64.30
2022-08-29T16:43:59.063Z,64.24
2022-08-29T16:47:41.536Z,64.08
2022-08-29T16:51:14.032Z,63.40
2022-08-29T16:55:00.372Z,63.29
2022-08-29T16:58:37.874Z,63.32
2022-08-29T17:02:16.708Z,63.82
2022-08-29T17:05:59.087Z,63.98
2022-08-29T17:09:36.397Z,63.69
2022-08-29T17:13:14.514Z,64.04
2022-08-29T17:16:54.565Z,64.24
2022-08-29T17:20:36.845Z,64.27
2022-08-29T17:24:20.018Z,64.54
2022-08-29T17:28:17.030Z,64.96
2022-08-29T17:31:53.854Z,65.19
2022-08-29T17:35:31.481Z,65.54
2022-08-29T17:39:08.554Z,65.71
2022-08-29T17:42:47.574Z,66.10
2022-08-29T17:46:25.709Z,66.29
2022-08-29T17:50:04.839Z,66.74
2022-08-29T17:53:43.137Z,66.79
2022-08-29T17:57:20.831Z,66.99
2022-08-29T18:00:59.127Z,67.47
2022-08-29T18:04:36.416Z,68.17
2022-08-29T18:08:13.839Z,68.71
2022-08-29T18:11:53.578Z,68.69
2022-08-29T18:15:35.283Z,68.98
2022-08-29T18:19:14.457Z,69.10
2022-08-29T18:22:51.799Z,69.48
2022-08-29T18:26:30.203Z,69.64
2022-08-29T18:30:10.886Z,69.97
2022-08-29T18:34:03.369Z,70.12
2022-08-29T18:37:41.323Z,70.34
2022-08-29T18:41:18.840Z,70.83
2022-08-29T18:44:56.170Z,70.77
2022-08-29T18:48:33.835Z,71.39
2022-08-29T18:52:13.802Z,71.54
2022-08-29T18:55:54.083Z,72.14
2022-08-29T18:59:32.596Z,72.70
2022-08-29T19:03:11.599Z,72.97
2022-08-29T19:06:49.547Z,72.94
2022-08-29T19:10:29.371Z,73.24
2022-08-29T19:14:06.846Z,73.06
2022-08-29T19:17:44.170Z,73.60
2022-08-29T19:21:21.395Z,74.05
2022-08-29T19:24:58.702Z,74.32
2022-08-29T19:28:37.494Z,74.32
2022-08-29T19:32:15.265Z,74.82
2022-08-29T19:35:52.946Z,74.98
2022-08-29T19:39:31.216Z,78.67
2022-08-29T19:43:13.611Z,78.63
2022-08-29T19:46:51.513Z,78.79
2022-08-29T19:50:29.638Z,77.54
2022-08-29T19:54:06.787Z,77.33
2022-08-29T19:57:48.346Z,77.19
2022-08-29T20:01:23.263Z,77.44
2022-08-29T20:05:01.758Z,77.22
2022-08-29T20:08:45.811Z,77.15
2022-08-29T20:12:23.226Z,77.38
2022-08-29T20:16:00.317Z,77.24
2022-08-29T20:19:42.799Z,77.49
2022-08-29T20:23:18.078Z,77.46
2022-08-29T20:26:52.811Z,77.51
2022-08-29T20:30:34.482Z,77.61
2022-08-29T20:34:11.913Z,77.42
2022-08-29T20:37:49.393Z,77.56
2022-08-29T20:41:27.474Z,77.65
2022-08-29T20:45:05.293Z,77.91
2022-08-29T20:48:43.223Z,77.97
2022-08-29T20:52:22.272Z,77.81
2022-08-29T20:56:01.172Z,77.72
2022-08-29T20:59:38.716Z,77.79
2022-08-29T21:03:16.914Z,77.84
2022-08-29T21:06:59.891Z,78.17
2022-08-29T21:10:37.756Z,78.05
2022-08-29T21:14:16.084Z,78.14
2022-08-29T21:17:53.448Z,78.18
2022-08-29T21:21:31.755Z,78.41
2022-08-29T21:25:10.153Z,78.29
2022-08-29T21:28:47.708Z,78.43
2022-08-29T21:32:25.562Z,78.41
2022-08-29T21:36:04.047Z,78.48
2022-08-29T21:39:42.063Z,78.57
2022-08-29T21:43:21.182Z,78.81
2022-08-29T21:47:00.788Z,78.79
2022-08-29T21:50:39.649Z,78.96
2022-08-29T21:54:18.142Z,78.73
2022-08-29T21:57:55.644Z,78.70
2022-08-29T22:01:36.053Z,78.70
2022-08-29T22:05:15.474Z,78.87
2022-08-29T22:08:53.802Z,78.68
2022-08-29T22:12:32.066Z,78.91
2022-08-29T22:16:10.557Z,78.62
2022-08-29T22:19:48.205Z,78.69
2022-08-29T22:23:25.735Z,78.79
2022-08-29T22:27:03.806Z,79.06
2022-08-29T22:30:40.758Z,78.80
2022-08-29T22:34:19.234Z,78.76
2022-08-29T22:37:57.606Z,78.62
2022-08-29T22:41:36.090Z,79.13
2022-08-29T22:45:16.168Z,78.98
2022-08-29T22:48:53.145Z,79.28
2022-08-29T22:52:31.966Z,80.24
2022-08-29T22:56:10.218Z,79.69
2022-08-29T22:59:48.495Z,79.77
2022-08-29T23:03:25.336Z,80.08
2022-08-29T23:07:04.336Z,80.26
2022-08-29T23:10:42.101Z,80.09
2022-08-29T23:14:20.965Z,80.38
2022-08-29T23:17:58.445Z,80.32
2022-08-29T23:21:38.750Z,80.41
2022-08-29T23:25:18.074Z,80.49
2022-08-29T23:28:55.250Z,80.25
2022-08-29T23:32:33.392Z,80.30
2022-08-29T23:36:10.983Z,79.96
2022-08-29T23:39:49.054Z,79.74
2022-08-29T23:43:27.213Z,79.67
2022-08-29T23:47:05.396Z,79.58
2022-08-29T23:50:45.797Z,79.55
2022-08-29T23:54:26.886Z,79.06
2022-08-29T23:58:05.117Z,78.86
